This is the latest recevied weather packets stored in our database for station/object DG1GMY-13. If no packets are shown the sender has not sent any weather packets the latest 10 day(s).
| Time | Temp. | Humidity | Pressure | Rain* | Wind** | Luminosity | Snow |
|---|---|---|---|---|---|---|---|
| 1778008915 | 13.33° C | 100% | 1009 hPa | - | - | - | - |
| 1778007109 | 12.78° C | 100% | 1008.8 hPa | - | - | - | - |
| 1778005304 | 12.78° C | 100% | 1008.9 hPa | - | - | - | - |
| 1778003497 | 12.78° C | 100% | 1009 hPa | - | - | - | - |
| 1778001691 | 15° C | 100% | 1008.4 hPa | - | - | - | - |
| 1777999885 | 16.11° C | 86% | 1008.1 hPa | - | - | - | - |
| 1777998079 | 16.11° C | 84% | 1008.4 hPa | - | - | - | - |
| 1777996273 | 16.67° C | 84% | 1008.4 hPa | - | - | - | - |
| 1777994467 | 16.67° C | 82% | 1008.5 hPa | - | - | - | - |
| 1777992661 | 16.67° C | 85% | 1008.7 hPa | - | - | - | - |
| 1777990855 | 15.56° C | 87% | 1008.9 hPa | - | - | - | - |
| 1777989049 | 16.11° C | 89% | 1009.1 hPa | - | - | - | - |
| 1777987244 | 17.78° C | 80% | 1009.5 hPa | - | - | - | - |
| 1777985437 | 18.33° C | 75% | 1009.7 hPa | - | - | - | - |
| 1777983631 | 17.78° C | 80% | 1009.9 hPa | - | - | - | - |
| 1777981825 | 17.78° C | 81% | 1009.9 hPa | - | - | - | - |
| 1777980019 | 16.67° C | 76% | 1009.9 hPa | - | - | - | - |
| 1777978214 | 17.78° C | 75% | 1010.1 hPa | - | - | - | - |
| 1777976407 | 18.33° C | 72% | 1010.2 hPa | - | - | - | - |
| 1777974601 | 17.22° C | 78% | 1010.4 hPa | - | - | - | - |
| 1777972796 | 16.11° C | 90% | 1010.4 hPa | - | - | - | - |
| 1777970990 | 15.56° C | 92% | 1010.6 hPa | - | - | - | - |
| 1777969184 | 15.56° C | 86% | 1010.8 hPa | - | - | - | - |
| 1777967378 | 15° C | 88% | 1011 hPa | - | - | - | - |
| 1777965572 | 14.44° C | 93% | 1011 hPa | - | - | - | - |
* Rain since midnight (hover to see other rain measurements)
** Current wind speed in m/s (hover to see current wind gust speed)